createdAt,value
2023-04-04T20:47:35.697Z,16.35
2023-04-04T20:48:57.475Z,16.56
2023-04-04T20:53:55.837Z,19.23
2023-04-04T20:58:56.088Z,19.32
2023-04-04T21:03:57.390Z,19.53
2023-04-04T21:08:54.689Z,19.53
2023-04-04T21:13:56.032Z,18.91
2023-04-04T21:18:54.261Z,18.60
2023-04-04T21:23:53.641Z,18.64
2023-04-04T21:28:52.707Z,18.94
2023-04-04T21:33:51.962Z,19.13
2023-04-04T21:38:50.208Z,18.81
2023-04-04T21:43:50.496Z,18.93
2023-04-04T21:48:48.752Z,18.62
2023-04-04T21:53:49.038Z,18.63
2023-04-04T21:58:47.329Z,20.95
2023-04-04T22:03:47.571Z,18.88
2023-04-04T22:08:46.924Z,18.78
2023-04-04T22:13:44.982Z,18.78
2023-04-04T22:18:44.244Z,18.88
2023-04-04T22:23:44.508Z,19.18
2023-04-04T22:28:43.803Z,19.49
2023-04-04T22:33:42.097Z,19.81
2023-04-04T22:38:41.369Z,20.02
2023-04-04T22:43:41.636Z,20.23
2023-04-04T22:48:40.933Z,20.54
2023-04-04T22:53:39.273Z,20.75
2023-04-04T22:58:38.380Z,21.06
2023-04-04T23:03:37.694Z,21.37
2023-04-04T23:08:36.984Z,21.59
2023-04-04T23:13:37.250Z,21.89
2023-04-04T23:18:35.523Z,22.20
2023-04-04T23:23:34.867Z,22.42
2023-04-04T23:28:34.099Z,22.62
2023-04-04T23:33:33.358Z,22.73
2023-04-04T23:38:31.707Z,22.84
2023-04-04T23:43:30.751Z,23.04
2023-04-04T23:48:32.030Z,23.25
2023-04-04T23:53:31.337Z,23.46
2023-04-04T23:58:31.606Z,23.66
